createdAt,value
2022-10-11T00:02:11.461Z,62.68
2022-10-11T00:03:11.472Z,62.70
2022-10-11T00:04:11.445Z,62.70
2022-10-11T00:07:11.446Z,62.68
2022-10-11T00:11:11.515Z,62.77
2022-10-11T00:12:11.479Z,62.81
2022-10-11T00:13:11.504Z,62.88
2022-10-11T00:15:11.429Z,62.86
2022-10-11T00:16:11.507Z,62.91
2022-10-11T00:17:11.492Z,62.91
2022-10-11T00:18:11.477Z,62.91
2022-10-11T00:19:11.477Z,62.84
2022-10-11T00:20:11.446Z,62.84
2022-10-11T00:22:11.520Z,62.78
2022-10-11T00:23:11.509Z,62.79
2022-10-11T00:25:11.537Z,62.77
2022-10-11T00:26:11.484Z,62.77
2022-10-11T00:28:11.567Z,62.72
2022-10-11T00:29:11.527Z,62.72
2022-10-11T00:30:11.528Z,62.72
2022-10-11T00:31:11.530Z,62.76
2022-10-11T00:32:11.502Z,62.81
2022-10-11T00:34:11.503Z,63.01
2022-10-11T00:35:11.572Z,62.98
2022-10-11T00:36:11.518Z,63.05
2022-10-11T00:38:11.535Z,63.08
2022-10-11T00:39:13.771Z,63.15
2022-10-11T00:41:11.525Z,63.19
2022-10-11T00:42:11.551Z,63.19
2022-10-11T00:43:11.570Z,63.19
2022-10-11T00:45:11.614Z,63.14
2022-10-11T00:46:11.607Z,63.09
2022-10-11T00:47:11.549Z,63.09
2022-10-11T00:49:11.540Z,62.99
2022-10-11T00:51:11.603Z,62.97
2022-10-11T00:53:11.545Z,62.93
2022-10-11T00:54:11.603Z,62.87
2022-10-11T00:55:11.584Z,62.87
2022-10-11T00:56:11.589Z,62.88
2022-10-11T00:57:11.585Z,62.88
2022-10-11T01:00:11.544Z,62.91
2022-10-11T01:01:11.626Z,62.91
2022-10-11T01:02:11.510Z,62.90
2022-10-11T01:03:11.529Z,62.85
2022-10-11T01:06:11.562Z,62.76
2022-10-11T01:11:11.501Z,62.94
2022-10-11T01:12:11.504Z,62.93
2022-10-11T01:13:11.500Z,62.92
2022-10-11T01:14:11.513Z,62.90
2022-10-11T01:16:11.497Z,62.85
2022-10-11T01:17:11.509Z,62.86
2022-10-11T01:19:11.529Z,62.98
2022-10-11T01:20:11.530Z,63.01
2022-10-11T01:21:11.527Z,63.03
2022-10-11T01:22:11.537Z,63.01
2022-10-11T01:23:11.550Z,62.88
2022-10-11T01:24:11.519Z,62.84
2022-10-11T01:25:11.527Z,62.90
2022-10-11T01:30:11.560Z,63.23
2022-10-11T01:31:11.530Z,63.28
2022-10-11T01:32:11.546Z,63.25
2022-10-11T01:33:11.578Z,63.17
2022-10-11T01:34:11.585Z,63.08
2022-10-11T01:35:11.564Z,63.08
2022-10-11T01:37:11.588Z,62.99
2022-10-11T01:39:11.597Z,63.01
2022-10-11T01:40:11.585Z,62.94
2022-10-11T01:41:11.571Z,62.95
2022-10-11T01:42:11.571Z,62.96
2022-10-11T01:43:11.577Z,62.95
2022-10-11T01:44:11.589Z,62.93
2022-10-11T01:47:11.623Z,62.99
2022-10-11T01:48:11.606Z,62.99
2022-10-11T01:52:11.631Z,62.90
2022-10-11T01:53:11.597Z,62.94
2022-10-11T01:54:11.610Z,62.94
2022-10-11T01:56:11.595Z,62.87
2022-10-11T01:58:11.643Z,62.91
2022-10-11T01:59:11.630Z,62.93
2022-10-11T02:00:11.622Z,62.92
2022-10-11T02:01:11.632Z,63.01
2022-10-11T02:03:11.636Z,63.17
2022-10-11T02:07:11.638Z,63.15
2022-10-11T02:09:11.667Z,63.16
2022-10-11T02:11:11.638Z,63.22
2022-10-11T02:12:11.652Z,63.21
2022-10-11T02:14:11.677Z,63.15
2022-10-11T02:15:11.660Z,63.09
2022-10-11T02:16:11.688Z,63.11
2022-10-11T02:20:11.678Z,63.10
2022-10-11T02:21:11.674Z,63.08
2022-10-11T02:22:11.676Z,63.11
2022-10-11T02:23:11.678Z,63.02
2022-10-11T02:24:11.670Z,62.93
2022-10-11T02:25:11.665Z,62.87
2022-10-11T02:26:11.698Z,62.83
2022-10-11T02:29:11.704Z,62.76
2022-10-11T02:30:11.696Z,62.79
2022-10-11T02:31:11.682Z,62.79
2022-10-11T02:33:11.721Z,62.80
2022-10-11T02:35:11.726Z,62.86
2022-10-11T02:38:11.742Z,62.81
2022-10-11T02:39:11.717Z,62.87
2022-10-11T02:40:11.717Z,62.95
2022-10-11T02:46:11.795Z,62.91
2022-10-11T02:47:11.764Z,62.82
2022-10-11T02:48:11.729Z,62.82
2022-10-11T02:49:11.763Z,62.82
2022-10-11T02:51:53.316Z,62.72
2022-10-11T02:52:16.590Z,62.72
2022-10-11T02:57:48.343Z,62.70
2022-10-11T02:57:58.647Z,63.04
2022-10-11T02:58:11.711Z,63.04
2022-10-11T02:59:11.781Z,63.02
2022-10-11T03:01:11.835Z,63.04
2022-10-11T03:02:11.787Z,63.00
2022-10-11T03:05:11.802Z,62.96
2022-10-11T03:06:11.799Z,62.95
2022-10-11T03:08:11.789Z,62.96
2022-10-11T03:09:11.796Z,62.94
2022-10-11T03:10:11.809Z,62.89
2022-10-11T03:13:14.887Z,63.03
2022-10-11T03:18:11.836Z,62.98
2022-10-11T03:19:14.676Z,62.95
2022-10-11T03:20:11.811Z,62.99
2022-10-11T03:22:11.834Z,63.13
2022-10-11T03:23:11.856Z,63.71
2022-10-11T03:25:11.837Z,63.71
2022-10-11T03:26:11.841Z,63.66
2022-10-11T03:27:11.855Z,63.67
2022-10-11T03:28:11.914Z,63.62
2022-10-11T03:29:11.837Z,63.60
2022-10-11T03:30:16.113Z,63.55
2022-10-11T03:31:11.860Z,63.47
2022-10-11T03:32:11.838Z,63.43
2022-10-11T03:34:11.851Z,63.41
2022-10-11T03:40:11.874Z,63.22
2022-10-11T03:41:11.876Z,63.25
2022-10-11T03:42:11.883Z,63.23
2022-10-11T03:43:11.885Z,63.25
2022-10-11T03:45:11.907Z,63.14
2022-10-11T03:46:11.896Z,63.14
2022-10-11T03:47:11.905Z,63.06
2022-10-11T03:48:11.908Z,63.02
2022-10-11T03:51:11.904Z,62.97
2022-10-11T03:52:11.907Z,62.98
2022-10-11T03:53:11.896Z,62.98
2022-10-11T03:54:11.905Z,63.05
2022-10-11T03:55:11.915Z,62.98
2022-10-11T03:56:12.320Z,63.09
2022-10-11T03:57:11.944Z,63.33
2022-10-11T03:58:11.907Z,63.77
2022-10-11T03:59:11.938Z,64.33
2022-10-11T04:00:11.924Z,64.89
2022-10-11T04:01:11.926Z,65.07
2022-10-11T04:02:12.093Z,65.42
2022-10-11T04:03:11.936Z,65.29
2022-10-11T04:04:11.944Z,65.05
2022-10-11T04:05:11.938Z,64.89
2022-10-11T04:06:11.945Z,64.76
2022-10-11T04:08:12.431Z,64.93
2022-10-11T04:10:11.974Z,65.10
2022-10-11T04:11:11.955Z,65.02
2022-10-11T04:12:11.963Z,65.07
2022-10-11T04:13:11.962Z,64.89
2022-10-11T04:14:11.969Z,64.59
2022-10-11T04:15:11.958Z,64.39
2022-10-11T04:16:11.968Z,64.22
2022-10-11T04:17:12.015Z,64.15
2022-10-11T04:18:11.966Z,64.02
2022-10-11T04:21:11.988Z,63.94
2022-10-11T04:22:11.980Z,63.96
2022-10-11T04:25:12.009Z,63.90
2022-10-11T04:29:12.029Z,63.81
2022-10-11T04:30:12.033Z,63.83
2022-10-11T04:31:12.012Z,63.89
2022-10-11T04:32:12.022Z,63.92
2022-10-11T04:33:12.034Z,64.20
2022-10-11T04:34:12.020Z,64.20
2022-10-11T04:35:11.992Z,64.20
2022-10-11T04:36:12.031Z,64.80
2022-10-11T04:37:12.018Z,65.02
2022-10-11T04:38:12.030Z,65.09
2022-10-11T04:39:12.043Z,65.00
2022-10-11T04:40:12.150Z,64.76
2022-10-11T04:41:12.046Z,64.76
2022-10-11T04:42:12.054Z,64.60
2022-10-11T04:45:12.045Z,64.52
2022-10-11T04:48:12.087Z,64.43
2022-10-11T04:49:12.032Z,64.43
2022-10-11T04:50:12.070Z,64.35
2022-10-11T04:51:12.110Z,64.34
2022-10-11T04:52:12.042Z,64.29
2022-10-11T04:56:12.099Z,64.18
2022-10-11T04:57:12.091Z,64.14
2022-10-11T04:59:12.064Z,64.10
2022-10-11T05:00:12.083Z,64.12
2022-10-11T05:01:12.108Z,64.11
2022-10-11T05:02:12.227Z,64.09
2022-10-11T05:03:12.095Z,64.14
2022-10-11T05:04:12.110Z,64.18
2022-10-11T05:05:12.090Z,64.17
2022-10-11T05:06:12.637Z,64.11
2022-10-11T05:07:12.106Z,64.19
2022-10-11T05:09:12.143Z,64.18
2022-10-11T05:10:12.123Z,64.12
2022-10-11T05:12:12.110Z,64.16
2022-10-11T05:14:12.122Z,64.16
2022-10-11T05:15:12.132Z,64.19
2022-10-11T05:16:12.590Z,64.18
2022-10-11T05:17:12.128Z,64.21
2022-10-11T05:18:12.158Z,64.14
2022-10-11T05:19:12.129Z,64.20
2022-10-11T05:21:12.158Z,64.21
2022-10-11T05:26:12.137Z,64.31
2022-10-11T05:27:12.189Z,64.33
2022-10-11T05:28:12.186Z,64.33
2022-10-11T05:29:12.175Z,64.25
2022-10-11T05:30:12.177Z,64.25
2022-10-11T05:31:12.170Z,64.20
2022-10-11T05:33:12.175Z,64.12
2022-10-11T05:34:12.176Z,64.15
2022-10-11T05:36:12.164Z,64.08
2022-10-11T05:38:12.183Z,64.12
2022-10-11T05:41:12.200Z,64.12
2022-10-11T05:43:12.175Z,64.07
2022-10-11T05:46:12.190Z,64.17
2022-10-11T05:47:12.205Z,64.14
2022-10-11T05:48:12.206Z,64.13
2022-10-11T05:49:12.202Z,64.07
2022-10-11T05:52:12.223Z,63.98
2022-10-11T05:53:12.217Z,63.98
2022-10-11T05:55:12.236Z,63.92
2022-10-11T05:56:12.235Z,63.95
2022-10-11T05:58:12.270Z,64.03
2022-10-11T05:59:12.254Z,63.97
2022-10-11T06:00:12.235Z,63.97
2022-10-11T06:01:12.297Z,63.96
2022-10-11T06:03:12.360Z,63.92
2022-10-11T06:04:12.246Z,63.91
2022-10-11T06:08:12.274Z,63.87
2022-10-11T06:11:12.324Z,63.91
2022-10-11T06:12:12.273Z,63.91
2022-10-11T06:14:12.275Z,63.92
2022-10-11T06:15:12.280Z,63.97
2022-10-11T06:17:12.325Z,63.99
2022-10-11T06:20:12.311Z,64.11
2022-10-11T06:21:12.283Z,64.11
2022-10-11T06:26:12.332Z,64.16
2022-10-11T06:27:12.318Z,64.16
2022-10-11T06:29:12.316Z,64.10
2022-10-11T06:30:12.303Z,64.10
2022-10-11T06:31:12.329Z,64.08
2022-10-11T06:33:12.307Z,64.02
2022-10-11T06:34:12.345Z,63.95
2022-10-11T06:35:12.344Z,63.94
2022-10-11T06:36:12.315Z,63.94
2022-10-11T06:37:12.323Z,63.93
2022-10-11T06:38:12.342Z,63.93
2022-10-11T06:39:12.339Z,63.92
2022-10-11T06:40:12.328Z,63.85
2022-10-11T06:41:12.343Z,63.80
2022-10-11T06:43:12.351Z,63.67
2022-10-11T06:44:14.314Z,63.66
2022-10-11T06:45:12.362Z,63.57
2022-10-11T06:46:12.360Z,63.54
2022-10-11T06:47:12.365Z,63.54
2022-10-11T06:48:12.379Z,63.61
2022-10-11T06:49:12.383Z,63.61
2022-10-11T06:50:12.357Z,63.69
2022-10-11T06:51:12.376Z,63.86
2022-10-11T06:52:12.381Z,63.86
2022-10-11T06:54:12.385Z,63.99
2022-10-11T06:55:12.403Z,64.02
2022-10-11T06:56:12.365Z,64.02
2022-10-11T06:57:12.395Z,64.16
2022-10-11T06:58:12.389Z,64.16
2022-10-11T07:00:12.783Z,64.21
2022-10-11T07:01:12.508Z,64.19
2022-10-11T07:03:12.405Z,64.23
2022-10-11T07:04:12.405Z,64.23
2022-10-11T07:06:12.402Z,64.23
2022-10-11T07:07:12.423Z,64.26
2022-10-11T07:08:12.400Z,64.26
2022-10-11T07:09:12.424Z,64.23
2022-10-11T07:10:12.451Z,64.19
2022-10-11T07:11:12.419Z,64.19
2022-10-11T07:12:12.410Z,64.20
2022-10-11T07:13:17.018Z,64.08
2022-10-11T07:14:12.445Z,63.91
2022-10-11T07:15:12.425Z,63.91
2022-10-11T07:16:12.428Z,63.92
2022-10-11T07:17:12.447Z,63.72
2022-10-11T07:19:12.447Z,63.73
2022-10-11T07:20:12.492Z,63.63
2022-10-11T07:22:12.460Z,63.58
2022-10-11T07:27:12.468Z,63.59
2022-10-11T07:28:12.481Z,63.59
2022-10-11T07:29:12.470Z,63.54
2022-10-11T07:30:12.465Z,63.54
2022-10-11T07:31:12.459Z,63.47
2022-10-11T07:32:12.477Z,63.31
2022-10-11T07:33:12.474Z,63.14
2022-10-11T07:34:12.471Z,62.27
2022-10-11T07:35:12.465Z,62.27
2022-10-11T07:36:12.470Z,61.43
2022-10-11T07:37:12.501Z,58.79
2022-10-11T07:38:12.491Z,57.26
2022-10-11T07:39:12.495Z,55.06
2022-10-11T07:40:12.512Z,55.06
2022-10-11T07:41:12.486Z,53.64
2022-10-11T07:42:12.505Z,49.77
2022-10-11T07:43:12.492Z,49.77
2022-10-11T07:44:12.502Z,47.78
2022-10-11T07:45:12.500Z,46.09
2022-10-11T07:46:12.567Z,43.80
2022-10-11T07:47:12.555Z,40.85
2022-10-11T07:48:12.515Z,40.85
2022-10-11T07:49:12.521Z,41.27
2022-10-11T07:50:12.520Z,41.07
2022-10-11T07:51:12.535Z,41.07
2022-10-11T07:52:12.564Z,39.24
2022-10-11T07:53:12.546Z,39.24
2022-10-11T07:54:12.535Z,38.45
2022-10-11T07:55:12.515Z,38.45
2022-10-11T07:56:12.547Z,38.15
2022-10-11T07:57:12.526Z,37.61
2022-10-11T07:58:12.538Z,37.75
2022-10-11T07:59:12.557Z,36.46
2022-10-11T08:00:12.538Z,36.16
2022-10-11T08:01:12.592Z,36.16
2022-10-11T08:02:12.525Z,35.43
2022-10-11T08:03:12.575Z,34.61
2022-10-11T08:04:12.572Z,34.61
2022-10-11T08:05:12.560Z,34.81
2022-10-11T08:06:12.549Z,35.03
2022-10-11T08:07:12.551Z,35.17
2022-10-11T08:08:12.567Z,35.93
2022-10-11T08:09:12.603Z,36.64
2022-10-11T08:10:12.580Z,36.58
2022-10-11T08:11:12.569Z,36.33
2022-10-11T08:12:12.561Z,36.33
2022-10-11T08:13:12.598Z,35.92
2022-10-11T08:14:12.594Z,35.49
2022-10-11T08:15:12.575Z,35.49
2022-10-11T08:16:12.572Z,34.97
2022-10-11T08:17:12.601Z,34.74
2022-10-11T08:18:12.597Z,34.29
2022-10-11T08:19:12.581Z,34.29
2022-10-11T08:20:12.653Z,33.62
2022-10-11T08:21:12.589Z,33.62
2022-10-11T08:22:12.595Z,33.70
2022-10-11T08:23:12.608Z,33.13
2022-10-11T08:24:12.609Z,33.00
2022-10-11T08:25:12.640Z,32.58
2022-10-11T08:26:12.615Z,32.58
2022-10-11T08:27:12.589Z,32.26
2022-10-11T08:28:12.729Z,31.52
2022-10-11T08:29:12.595Z,31.52
2022-10-11T08:30:12.605Z,31.16
2022-10-11T08:31:12.640Z,30.58
2022-10-11T08:32:12.642Z,30.04
2022-10-11T08:33:12.646Z,30.04
2022-10-11T08:34:12.625Z,29.60
2022-10-11T08:35:12.620Z,30.04
2022-10-11T08:36:12.633Z,29.85
2022-10-11T08:37:12.653Z,29.36
2022-10-11T08:38:12.642Z,28.97
2022-10-11T08:39:12.648Z,28.98
2022-10-11T08:40:12.659Z,28.89
2022-10-11T08:41:12.631Z,28.93
2022-10-11T08:42:12.635Z,28.71
2022-10-11T08:43:12.654Z,28.52
2022-10-11T08:44:12.667Z,28.28
2022-10-11T08:45:12.660Z,28.28
2022-10-11T08:46:12.667Z,28.42
2022-10-11T08:47:12.674Z,28.60
2022-10-11T08:48:12.674Z,28.68
2022-10-11T08:49:12.691Z,28.94
2022-10-11T08:50:12.695Z,28.43
2022-10-11T08:51:12.676Z,28.43
2022-10-11T08:52:12.679Z,28.56
2022-10-11T08:53:12.678Z,28.30
2022-10-11T08:54:12.694Z,28.24
2022-10-11T08:55:12.671Z,27.85
2022-10-11T08:56:12.699Z,27.69
2022-10-11T08:57:12.697Z,27.30
2022-10-11T08:58:12.705Z,27.70
2022-10-11T09:00:12.688Z,27.89
2022-10-11T09:01:12.765Z,28.54
2022-10-11T09:02:12.718Z,28.54
2022-10-11T09:03:12.716Z,30.00
2022-10-11T09:04:12.706Z,30.00
2022-10-11T09:05:12.740Z,30.53
2022-10-11T09:06:12.718Z,30.53
2022-10-11T09:08:12.732Z,30.20
2022-10-11T09:09:12.727Z,30.12
2022-10-11T09:10:12.729Z,30.63
2022-10-11T09:11:12.713Z,31.23
2022-10-11T09:12:12.749Z,32.68
2022-10-11T09:13:12.718Z,32.68
2022-10-11T09:14:12.740Z,32.62
2022-10-11T09:15:12.744Z,32.19
2022-10-11T09:16:12.736Z,31.70
2022-10-11T09:17:12.746Z,30.84
2022-10-11T09:18:12.754Z,30.24
2022-10-11T09:19:12.752Z,29.90
2022-10-11T09:20:12.771Z,29.17
2022-10-11T09:21:12.744Z,28.86
2022-10-11T09:22:12.759Z,28.38
2022-10-11T09:23:12.782Z,28.28
2022-10-11T09:24:12.780Z,28.06
2022-10-11T09:25:12.765Z,28.06
2022-10-11T09:26:12.775Z,28.09
2022-10-11T09:27:12.784Z,27.31
2022-10-11T09:28:12.794Z,27.31
2022-10-11T09:29:12.798Z,27.49
2022-10-11T09:30:12.790Z,27.49
2022-10-11T09:31:12.784Z,27.55
2022-10-11T09:32:12.778Z,27.55
2022-10-11T09:33:12.793Z,27.64
2022-10-11T09:34:12.816Z,28.12
2022-10-11T09:35:12.803Z,29.15
2022-10-11T09:36:12.807Z,29.64
2022-10-11T09:37:12.786Z,29.64
2022-10-11T09:38:12.798Z,30.38
2022-10-11T09:39:12.825Z,31.23
2022-10-11T09:40:12.810Z,31.75
2022-10-11T09:41:12.812Z,31.99
2022-10-11T09:42:12.817Z,31.99
2022-10-11T09:43:12.832Z,32.63
2022-10-11T09:44:12.816Z,32.63
2022-10-11T09:45:12.818Z,32.96
2022-10-11T09:46:12.835Z,33.09
2022-10-11T09:47:12.849Z,33.50
2022-10-11T09:48:12.834Z,33.88
2022-10-11T09:49:12.846Z,34.33
2022-10-11T09:50:12.826Z,34.31
2022-10-11T09:51:12.846Z,34.31
2022-10-11T09:52:12.846Z,34.59
2022-10-11T09:53:12.857Z,34.85
2022-10-11T09:54:12.839Z,34.85
2022-10-11T09:55:15.363Z,35.14
2022-10-11T09:56:12.853Z,35.14
2022-10-11T09:57:12.868Z,35.54
2022-10-11T09:58:12.853Z,35.54
2022-10-11T09:59:12.888Z,36.15
2022-10-11T10:00:12.896Z,36.48
2022-10-11T10:01:12.869Z,36.48
2022-10-11T10:02:12.963Z,36.60
2022-10-11T10:03:12.863Z,36.76
2022-10-11T10:04:12.877Z,37.39
2022-10-11T10:05:12.852Z,37.87
2022-10-11T10:06:12.886Z,38.42
2022-10-11T10:07:12.893Z,38.78
2022-10-11T10:08:12.893Z,38.78
2022-10-11T10:09:12.906Z,38.82
2022-10-11T10:10:12.891Z,38.82
2022-10-11T10:11:12.904Z,39.17
2022-10-11T10:12:12.911Z,39.43
2022-10-11T10:13:12.938Z,39.58
2022-10-11T10:14:12.897Z,39.58
2022-10-11T10:15:12.880Z,39.31
2022-10-11T10:16:12.927Z,39.46
2022-10-11T10:17:12.941Z,39.45
2022-10-11T10:18:12.908Z,39.45
2022-10-11T10:19:12.902Z,39.27
2022-10-11T10:20:12.941Z,39.18
2022-10-11T10:21:12.913Z,39.18
2022-10-11T10:22:12.965Z,39.52
2022-10-11T10:23:12.951Z,39.82
2022-10-11T10:24:12.972Z,39.88
2022-10-11T10:25:12.970Z,39.96
2022-10-11T10:26:12.949Z,39.64
2022-10-11T10:27:12.947Z,39.76
2022-10-11T10:28:13.035Z,39.51
2022-10-11T10:31:12.958Z,39.52
2022-10-11T10:32:14.755Z,39.73
2022-10-11T10:33:12.951Z,39.73
2022-10-11T10:34:13.010Z,39.79
2022-10-11T10:35:12.961Z,39.79
2022-10-11T10:36:12.971Z,39.73
2022-10-11T10:37:12.957Z,39.72
2022-10-11T10:38:12.990Z,39.86
2022-10-11T10:39:12.988Z,39.83
2022-10-11T10:40:12.981Z,39.83
2022-10-11T10:41:12.979Z,40.30
2022-10-11T10:42:12.955Z,40.30
2022-10-11T10:43:12.986Z,40.53
2022-10-11T10:44:12.974Z,40.49
2022-10-11T10:45:16.210Z,40.59
2022-10-11T10:46:13.008Z,40.54
2022-10-11T10:47:13.007Z,40.82
2022-10-11T10:48:12.996Z,40.82
2022-10-11T10:49:52.321Z,40.95
2022-10-11T10:50:13.039Z,41.26
2022-10-11T10:53:13.029Z,41.93
2022-10-11T10:54:13.030Z,41.93
2022-10-11T10:55:13.010Z,41.93
2022-10-11T10:56:12.999Z,42.03
2022-10-11T10:57:13.027Z,41.41
2022-10-11T10:58:16.463Z,41.81
2022-10-11T10:59:13.009Z,41.81
2022-10-11T11:00:13.019Z,41.89
2022-10-11T11:01:13.042Z,41.74
2022-10-11T11:02:38.583Z,41.51
2022-10-11T11:03:13.036Z,41.51
2022-10-11T11:04:13.028Z,41.47
2022-10-11T11:05:13.034Z,41.72
2022-10-11T11:06:13.033Z,41.61
2022-10-11T11:07:13.047Z,41.53
2022-10-11T11:08:13.049Z,41.46
2022-10-11T11:09:13.049Z,41.58
2022-10-11T11:10:13.044Z,41.58
2022-10-11T11:11:13.065Z,41.31
2022-10-11T11:12:13.057Z,41.31
2022-10-11T11:13:13.025Z,41.54
2022-10-11T11:14:13.034Z,41.81
2022-10-11T11:15:13.055Z,41.69
2022-10-11T11:16:13.105Z,42.05
2022-10-11T11:17:13.077Z,42.05
2022-10-11T11:18:13.074Z,42.17
2022-10-11T11:19:13.085Z,42.06
2022-10-11T11:20:13.086Z,42.02
2022-10-11T11:21:13.065Z,42.02
2022-10-11T11:22:13.079Z,42.24
2022-10-11T11:23:13.109Z,42.24
2022-10-11T11:24:13.072Z,42.30
2022-10-11T11:25:13.095Z,42.56
2022-10-11T11:26:13.068Z,42.56
2022-10-11T11:27:13.094Z,42.84
2022-10-11T11:28:13.100Z,42.84
2022-10-11T11:29:13.105Z,42.25
2022-10-11T11:30:13.209Z,42.25
2022-10-11T11:31:13.091Z,42.43
2022-10-11T11:32:13.131Z,42.42
2022-10-11T11:33:13.122Z,42.14
2022-10-11T11:34:13.156Z,42.20
2022-10-11T11:35:13.111Z,42.20
2022-10-11T11:36:13.119Z,42.71
2022-10-11T11:37:13.119Z,42.66
2022-10-11T11:38:13.112Z,42.51
2022-10-11T11:39:13.124Z,42.61
2022-10-11T11:40:13.168Z,42.61
2022-10-11T11:41:13.114Z,42.86
2022-10-11T11:42:13.140Z,42.72
2022-10-11T11:43:13.118Z,42.72
2022-10-11T11:44:13.156Z,43.14
2022-10-11T11:45:13.148Z,43.14
2022-10-11T11:46:13.154Z,42.91
2022-10-11T11:48:13.135Z,42.43
2022-10-11T11:49:13.216Z,42.30
2022-10-11T11:50:13.220Z,42.88
2022-10-11T11:51:13.152Z,42.74
2022-10-11T11:52:13.159Z,43.04
2022-10-11T11:53:13.149Z,43.01
2022-10-11T11:54:13.193Z,43.01
2022-10-11T11:56:13.164Z,42.98
2022-10-11T11:57:13.170Z,43.04
2022-10-11T11:58:13.205Z,43.06
2022-10-11T11:59:13.179Z,43.06
2022-10-11T12:00:13.178Z,43.07
2022-10-11T12:01:13.173Z,42.97
2022-10-11T12:02:13.267Z,43.11
2022-10-11T12:03:13.203Z,43.07
2022-10-11T12:04:13.230Z,42.94
2022-10-11T12:05:13.182Z,42.79
2022-10-11T12:06:13.202Z,42.49
2022-10-11T12:07:17.133Z,42.97
2022-10-11T12:08:13.181Z,42.97
2022-10-11T12:09:13.211Z,42.81
2022-10-11T12:11:13.228Z,43.13
2022-10-11T12:12:13.219Z,42.45
2022-10-11T12:13:13.229Z,42.48
2022-10-11T12:14:13.201Z,42.48
2022-10-11T12:15:13.219Z,42.81
2022-10-11T12:16:13.227Z,43.15
2022-10-11T12:17:13.224Z,43.09
2022-10-11T12:19:13.244Z,43.47
2022-10-11T12:20:13.256Z,43.35
2022-10-11T12:21:13.240Z,43.35
2022-10-11T12:22:13.252Z,43.35
2022-10-11T12:24:13.247Z,43.17
2022-10-11T12:25:17.590Z,43.16
2022-10-11T12:26:13.227Z,43.32
2022-10-11T12:27:13.267Z,43.51
2022-10-11T12:29:13.238Z,43.55
2022-10-11T12:30:13.257Z,43.61
2022-10-11T12:31:13.247Z,43.68
2022-10-11T12:32:13.265Z,43.46
2022-10-11T12:34:13.278Z,43.40
2022-10-11T12:35:13.263Z,43.58
2022-10-11T12:36:13.879Z,43.39
2022-10-11T12:37:13.269Z,43.25
2022-10-11T12:38:13.271Z,43.06
2022-10-11T12:39:13.294Z,43.06
2022-10-11T12:40:13.278Z,43.10
2022-10-11T12:41:13.282Z,43.43
2022-10-11T12:42:13.296Z,43.49
2022-10-11T12:43:13.303Z,43.49
2022-10-11T12:44:13.265Z,43.31
2022-10-11T12:45:13.401Z,43.14
2022-10-11T12:46:13.302Z,43.14
2022-10-11T12:47:13.293Z,43.34
2022-10-11T12:48:13.289Z,43.58
2022-10-11T12:49:13.307Z,43.80
2022-10-11T12:50:13.308Z,43.80
2022-10-11T12:51:13.334Z,44.28
2022-10-11T12:52:13.323Z,43.80
2022-10-11T12:54:26.824Z,43.80
2022-10-11T12:55:13.322Z,43.77
2022-10-11T12:56:13.335Z,43.65
2022-10-11T12:57:13.329Z,43.65
2022-10-11T13:00:13.347Z,43.90
2022-10-11T13:01:13.375Z,43.90
2022-10-11T13:02:13.340Z,43.95
2022-10-11T13:03:13.334Z,43.95
2022-10-11T13:04:13.333Z,44.01
2022-10-11T13:05:13.362Z,43.55
2022-10-11T13:06:13.363Z,43.84
2022-10-11T13:07:13.392Z,43.68
2022-10-11T13:11:13.357Z,43.38
2022-10-11T13:12:13.346Z,43.65
2022-10-11T13:13:13.395Z,43.44
2022-10-11T13:14:13.356Z,43.44
2022-10-11T13:15:13.510Z,43.61
2022-10-11T13:17:13.382Z,43.85
2022-10-11T13:19:13.380Z,43.94
2022-10-11T13:20:13.412Z,44.04
2022-10-11T13:21:13.387Z,43.78
2022-10-11T13:22:13.379Z,43.78
2022-10-11T13:23:13.416Z,43.42
2022-10-11T13:24:13.394Z,43.78
2022-10-11T13:25:13.392Z,43.78
2022-10-11T13:26:13.397Z,43.63
2022-10-11T13:27:13.437Z,43.81
2022-10-11T13:28:13.432Z,43.81
2022-10-11T13:29:13.395Z,43.60
2022-10-11T13:30:13.412Z,43.70
2022-10-11T13:31:13.408Z,43.70
2022-10-11T13:32:13.432Z,44.13
2022-10-11T13:33:13.432Z,44.47
2022-10-11T13:34:13.430Z,44.59
2022-10-11T13:35:13.403Z,44.59
2022-10-11T13:36:13.438Z,44.71
2022-10-11T13:37:13.441Z,44.71
2022-10-11T13:38:13.412Z,44.45
2022-10-11T13:39:13.453Z,44.70
2022-10-11T13:40:13.432Z,44.47
2022-10-11T13:41:13.448Z,44.47
2022-10-11T13:42:13.465Z,43.71
2022-10-11T13:44:13.440Z,43.63
2022-10-11T13:45:13.458Z,43.78
2022-10-11T13:46:13.437Z,43.87
2022-10-11T13:47:13.473Z,44.11
2022-10-11T13:48:13.444Z,44.11
2022-10-11T13:49:13.444Z,44.50
2022-10-11T13:50:13.463Z,44.18
2022-10-11T13:51:13.468Z,44.15
2022-10-11T13:52:13.472Z,44.75
2022-10-11T13:53:13.453Z,44.24
2022-10-11T13:54:14.102Z,44.33
2022-10-11T13:55:13.483Z,44.27
2022-10-11T13:56:13.470Z,44.59
2022-10-11T13:57:13.482Z,44.46
2022-10-11T13:58:18.376Z,44.69
2022-10-11T13:59:13.475Z,44.75
2022-10-11T14:01:13.528Z,45.10
2022-10-11T14:02:13.506Z,45.15
2022-10-11T14:03:13.506Z,45.15
2022-10-11T14:04:13.558Z,45.36
2022-10-11T14:05:13.482Z,44.48
2022-10-11T14:06:13.524Z,45.04
2022-10-11T14:07:13.495Z,45.04
2022-10-11T14:08:13.491Z,45.26
2022-10-11T14:09:13.504Z,45.42
2022-10-11T14:10:13.535Z,45.47
2022-10-11T14:11:13.509Z,45.47
2022-10-11T14:12:13.533Z,46.08
2022-10-11T14:13:13.520Z,46.17
2022-10-11T14:14:13.530Z,46.17
2022-10-11T14:15:13.558Z,46.31
2022-10-11T14:16:13.514Z,46.31
2022-10-11T14:17:13.533Z,46.29
2022-10-11T14:18:13.512Z,46.39
2022-10-11T14:19:13.540Z,46.31
2022-10-11T14:20:13.528Z,46.07
2022-10-11T14:21:13.566Z,46.26
2022-10-11T14:22:13.557Z,46.03
2022-10-11T14:23:13.543Z,46.03
2022-10-11T14:24:13.563Z,46.31
2022-10-11T14:25:13.558Z,46.53
2022-10-11T14:26:18.368Z,46.53
2022-10-11T14:27:13.572Z,46.71
2022-10-11T14:28:13.643Z,46.71
2022-10-11T14:29:13.559Z,46.77
2022-10-11T14:30:25.145Z,46.87
2022-10-11T14:31:13.567Z,46.65
2022-10-11T14:32:13.577Z,46.43
2022-10-11T14:33:13.574Z,46.62
2022-10-11T14:35:13.584Z,46.98
2022-10-11T14:36:13.560Z,47.01
2022-10-11T14:37:13.568Z,47.01
2022-10-11T14:38:13.599Z,46.85
2022-10-11T14:39:13.595Z,47.08
2022-10-11T14:41:13.601Z,47.11
2022-10-11T14:42:13.622Z,47.14
2022-10-11T14:44:13.613Z,47.28
2022-10-11T14:45:13.619Z,47.28
2022-10-11T14:46:13.603Z,47.00
2022-10-11T14:47:13.615Z,47.01
2022-10-11T14:48:13.614Z,47.07
2022-10-11T14:49:13.626Z,46.89
2022-10-11T14:50:13.618Z,46.85
2022-10-11T14:51:13.627Z,46.85
2022-10-11T14:52:13.606Z,46.80
2022-10-11T14:53:13.629Z,46.93
2022-10-11T14:55:13.635Z,46.91
2022-10-11T14:56:17.730Z,46.87
2022-10-11T14:57:13.649Z,47.02
2022-10-11T14:58:13.645Z,47.11
2022-10-11T14:59:13.635Z,47.11
2022-10-11T15:00:13.635Z,47.34
2022-10-11T15:01:13.758Z,47.58
2022-10-11T15:03:13.643Z,47.83
2022-10-11T15:04:13.645Z,47.83
2022-10-11T15:05:13.673Z,47.95
2022-10-11T15:06:13.648Z,47.95
2022-10-11T15:09:13.669Z,48.16
2022-10-11T15:10:13.683Z,48.42
2022-10-11T15:11:13.681Z,48.06
2022-10-11T15:12:13.658Z,48.06
2022-10-11T15:13:13.675Z,48.15
2022-10-11T15:14:13.685Z,48.15
2022-10-11T15:16:13.672Z,48.28
2022-10-11T15:17:13.668Z,48.71
2022-10-11T15:18:13.687Z,48.75
2022-10-11T15:19:13.710Z,49.02
2022-10-11T15:20:13.687Z,49.02
2022-10-11T15:21:13.723Z,49.15
2022-10-11T15:22:13.705Z,49.14
2022-10-11T15:23:13.681Z,49.56
2022-10-11T15:24:13.712Z,49.16
2022-10-11T15:25:13.687Z,48.86
2022-10-11T15:26:13.717Z,48.80
2022-10-11T15:27:13.719Z,48.84
2022-10-11T15:28:13.727Z,48.86
2022-10-11T15:29:13.685Z,49.25
2022-10-11T15:30:13.722Z,49.25
2022-10-11T15:31:13.716Z,49.28
2022-10-11T15:32:13.705Z,49.45
2022-10-11T15:34:13.709Z,49.33
2022-10-11T15:36:13.718Z,49.61
2022-10-11T15:37:13.738Z,49.71
2022-10-11T15:38:13.736Z,49.75
2022-10-11T15:39:13.736Z,49.92
2022-10-11T15:41:13.732Z,49.69
2022-10-11T15:42:13.734Z,49.47
2022-10-11T15:43:13.749Z,49.51
2022-10-11T15:44:13.732Z,49.71
2022-10-11T15:45:13.740Z,49.55
2022-10-11T15:46:13.759Z,49.47
2022-10-11T15:47:13.743Z,49.49
2022-10-11T15:48:13.774Z,49.44
2022-10-11T15:49:13.776Z,49.58
2022-10-11T15:50:13.758Z,49.59
2022-10-11T15:51:13.783Z,49.58
2022-10-11T15:52:13.770Z,49.74
2022-10-11T15:53:13.797Z,49.89
2022-10-11T15:54:13.778Z,49.90
2022-10-11T15:55:13.755Z,49.90
2022-10-11T15:57:14.075Z,49.82
2022-10-11T15:58:13.771Z,49.82